sensor_id;sensor_type;location;lat;lon;timestamp;pressure;altitude;pressure_sealevel;temperature;humidity
57799;BME280;43626;53.866;30.298;2022-11-20T00:04:40;1025.1;;;-3.7;60.2
57799;BME280;43626;53.866;30.298;2022-11-20T00:09:15;1025.1;;;-3.6;60
57799;BME280;43626;53.866;30.298;2022-11-20T00:14:52;1025.1;;;-3.6;60
57799;BME280;43626;53.866;30.298;2022-11-20T00:19:40;1025.1;;;-3.6;59.8
57799;BME280;43626;53.866;30.298;2022-11-20T00:24:36;1025.2;;;-3.7;59.3
57799;BME280;43626;53.866;30.298;2022-11-20T00:29:38;1025.2;;;-3.7;59.1
57799;BME280;43626;53.866;30.298;2022-11-20T00:34:14;1025.2;;;-3.8;58.9
57799;BME280;43626;53.866;30.298;2022-11-20T00:39:26;1025.2;;;-3.8;58.8
57799;BME280;43626;53.866;30.298;2022-11-20T00:44:54;1025.2;;;-3.9;58.4
57799;BME280;43626;53.866;30.298;2022-11-20T00:49:14;1025.2;;;-3.9;58.4
57799;BME280;43626;53.866;30.298;2022-11-20T00:54:40;1025.3;;;-4;58.6
57799;BME280;43626;53.866;30.298;2022-11-20T00:59:08;1025.4;;;-4;58
57799;BME280;43626;53.866;30.298;2022-11-20T01:04:14;1025.5;;;-4.2;57.7
57799;BME280;43626;53.866;30.298;2022-11-20T01:09:24;1025.7;;;-4.3;57.8
57799;BME280;43626;53.866;30.298;2022-11-20T01:14:38;1025.8;;;-4.3;58.2
57799;BME280;43626;53.866;30.298;2022-11-20T01:19:40;1025.9;;;-4.3;58.6
57799;BME280;43626;53.866;30.298;2022-11-20T01:24:15;1026;;;-4.3;59.2
57799;BME280;43626;53.866;30.298;2022-11-20T01:29:19;1025.9;;;-4.3;59.1
57799;BME280;43626;53.866;30.298;2022-11-20T01:34:58;1025.9;;;-4.2;59.5
57799;BME280;43626;53.866;30.298;2022-11-20T01:39:58;1026;;;-4.2;59.5
57799;BME280;43626;53.866;30.298;2022-11-20T01:45:42;1026.1;;;-4.1;59.7
57799;BME280;43626;53.866;30.298;2022-11-20T01:49:07;1026.1;;;-4.1;59.8
57799;BME280;43626;53.866;30.298;2022-11-20T01:54:06;1026.1;;;-4.1;59.9
57799;BME280;43626;53.866;30.298;2022-11-20T02:00:00;1026.1;;;-4;59.9
57799;BME280;43626;53.866;30.298;2022-11-20T02:04:30;1026.2;;;-4;59.9
57799;BME280;43626;53.866;30.298;2022-11-20T02:09:44;1026.2;;;-3.9;59.9
57799;BME280;43626;53.866;30.298;2022-11-20T02:14:18;1026.2;;;-3.9;59.9
57799;BME280;43626;53.866;30.298;2022-11-20T06:39:58;1027.9;;;-2.6;59.5
57799;BME280;43626;53.866;30.298;2022-11-20T06:44:06;1028;;;-2.5;59.2
57799;BME280;43626;53.866;30.298;2022-11-20T06:49:44;1028.1;;;-2.5;59.1
57799;BME280;43626;53.866;30.298;2022-11-20T06:54:18;1028.2;;;-2.4;59.1
57799;BME280;43626;53.866;30.298;2022-11-20T06:59:56;1028.2;;;-2.2;59.3
57799;BME280;43626;53.866;30.298;2022-11-20T07:04:06;1028.2;;;-2.2;58.9
57799;BME280;43626;53.866;30.298;2022-11-20T07:09:32;1028.1;;;-2.1;58.5
57799;BME280;43626;53.866;30.298;2022-11-20T07:14:16;1028;;;-2;58.2
57799;BME280;43626;53.866;30.298;2022-11-20T07:19:18;1028.1;;;-2;57.8
57799;BME280;43626;53.866;30.298;2022-11-20T07:24:44;1028.2;;;-2;57.8
57799;BME280;43626;53.866;30.298;2022-11-20T07:29:44;1028.3;;;-2;57.8
57799;BME280;43626;53.866;30.298;2022-11-20T07:34:44;1028.3;;;-1.9;57.7
57799;BME280;43626;53.866;30.298;2022-11-20T07:39:18;1028.4;;;-1.9;57.8
57799;BME280;43626;53.866;30.298;2022-11-20T07:44:06;1028.5;;;-1.9;57.9
57799;BME280;43626;53.866;30.298;2022-11-20T07:49:58;1028.5;;;-1.9;57.9
57799;BME280;43626;53.866;30.298;2022-11-20T07:54:58;1028.5;;;-1.8;57.7
57799;BME280;43626;53.866;30.298;2022-11-20T07:59:16;1028.5;;;-1.8;57.7
57799;BME280;43626;53.866;30.298;2022-11-20T08:04:44;1028.6;;;-1.7;57.4
57799;BME280;43626;53.866;30.298;2022-11-20T08:09:18;1028.6;;;-1.7;57.1
57799;BME280;43626;53.866;30.298;2022-11-20T08:14:58;1028.6;;;-1.6;57.2
57799;BME280;43626;53.866;30.298;2022-11-20T08:19:28;1028.6;;;-1.6;56.8
57799;BME280;43626;53.866;30.298;2022-11-20T08:24:42;1028.5;;;-1.6;56.4
57799;BME280;43626;53.866;30.298;2022-11-20T08:29:06;1028.5;;;-1.5;56.4
57799;BME280;43626;53.866;30.298;2022-11-20T08:34:06;1028.5;;;-1.5;56.6
57799;BME280;43626;53.866;30.298;2022-11-20T08:39:28;1028.6;;;-1.4;56.8
57799;BME280;43626;53.866;30.298;2022-11-20T08:44:44;1028.7;;;-1.3;56.6
57799;BME280;43626;53.866;30.298;2022-11-20T08:49:40;1028.6;;;-1.3;56.5
57799;BME280;43626;53.866;30.298;2022-11-20T08:54:18;1028.6;;;-1.3;56.5
57799;BME280;43626;53.866;30.298;2022-11-20T08:59:26;1028.6;;;-1.3;56.2
57799;BME280;43626;53.866;30.298;2022-11-20T09:04:52;1028.6;;;-1.4;55.9
57799;BME280;43626;53.866;30.298;2022-11-20T09:09:10;1028.6;;;-1.3;55.9
57799;BME280;43626;53.866;30.298;2022-11-20T09:14:56;1028.6;;;-1.3;55.6
57799;BME280;43626;53.866;30.298;2022-11-20T09:19:06;1028.5;;;-1.3;55.2
57799;BME280;43626;53.866;30.298;2022-11-20T09:24:18;1028.5;;;-1.2;55.5
57799;BME280;43626;53.866;30.298;2022-11-20T09:29:16;1028.5;;;-1.2;55.4
57799;BME280;43626;53.866;30.298;2022-11-20T09:34:50;1028.5;;;-1.1;55.4
57799;BME280;43626;53.866;30.298;2022-11-20T09:39:52;1028.4;;;-1.2;55.5
57799;BME280;43626;53.866;30.298;2022-11-20T09:44:56;1028.3;;;-1.2;55.6
57799;BME280;43626;53.866;30.298;2022-11-20T09:49:22;1028.5;;;-1.3;55.6
57799;BME280;43626;53.866;30.298;2022-11-20T09:54:37;1028.6;;;-1.3;55.4
57799;BME280;43626;53.866;30.298;2022-11-20T09:59:41;1028.5;;;-1.3;55
57799;BME280;43626;53.866;30.298;2022-11-20T10:04:17;1028.4;;;-1.3;54.9
57799;BME280;43626;53.866;30.298;2022-11-20T10:09:53;1028.5;;;-1.3;55
57799;BME280;43626;53.866;30.298;2022-11-20T10:14:09;1028.4;;;-1.3;54.7
57799;BME280;43626;53.866;30.298;2022-11-20T10:19:30;1028.2;;;-1.3;54.4
57799;BME280;43626;53.866;30.298;2022-11-20T10:24:30;1028.3;;;-1.3;55
57799;BME280;43626;53.866;30.298;2022-11-20T10:29:54;1028.3;;;-1.3;54.9
57799;BME280;43626;53.866;30.298;2022-11-20T10:34:28;1028.2;;;-1.3;55
57799;BME280;43626;53.866;30.298;2022-11-20T10:39:07;1028.2;;;-1.5;54.9
57799;BME280;43626;53.866;30.298;2022-11-20T10:44:29;1028.2;;;-1.6;55
57799;BME280;43626;53.866;30.298;2022-11-20T10:49:53;1028.1;;;-1.7;54.9
57799;BME280;43626;53.866;30.298;2022-11-20T10:54:57;1028.2;;;-1.7;55
57799;BME280;43626;53.866;30.298;2022-11-20T10:59:55;1028.2;;;-1.8;54.4
57799;BME280;43626;53.866;30.298;2022-11-20T11:04:28;1028.2;;;-1.8;54.4
57799;BME280;43626;53.866;30.298;2022-11-20T11:09:39;1028.2;;;-1.8;54.3
57799;BME280;43626;53.866;30.298;2022-11-20T11:14:42;1028.1;;;-2;54.8
57799;BME280;43626;53.866;30.298;2022-11-20T11:19:28;1028.1;;;-2;55.2
57799;BME280;43626;53.866;30.298;2022-11-20T11:24:52;1028;;;-2;55.3
57799;BME280;43626;53.866;30.298;2022-11-20T11:29:18;1028;;;-2;55.3
57799;BME280;43626;53.866;30.298;2022-11-20T11:34:42;1028.1;;;-2;55.3
57799;BME280;43626;53.866;30.298;2022-11-20T11:39:29;1028.2;;;-2.1;55.5
57799;BME280;43626;53.866;30.298;2022-11-20T11:44:54;1028.2;;;-2.1;55.6
57799;BME280;43626;53.866;30.298;2022-11-20T11:49:17;1028.2;;;-2.2;55.6
57799;BME280;43626;53.866;30.298;2022-11-20T11:54:43;1028.2;;;-2.2;55.8
57799;BME280;43626;53.866;30.298;2022-11-20T11:59:45;1028.2;;;-2.2;55.7
57799;BME280;43626;53.866;30.298;2022-11-20T12:04:57;1028.3;;;-2.2;55.7
57799;BME280;43626;53.866;30.298;2022-11-20T12:09:56;1028.3;;;-2.2;55.5
57799;BME280;43626;53.866;30.298;2022-11-20T12:14:54;1028.3;;;-2.2;55.6
57799;BME280;43626;53.866;30.298;2022-11-20T12:19:18;1028.3;;;-2.3;55.7
57799;BME280;43626;53.866;30.298;2022-11-20T12:24:42;1028.3;;;-2.4;55.7
57799;BME280;43626;53.866;30.298;2022-11-20T12:29:43;1028.3;;;-2.6;55.7
57799;BME280;43626;53.866;30.298;2022-11-20T12:34:10;1028.3;;;-2.6;57.1
57799;BME280;43626;53.866;30.298;2022-11-20T12:39:57;1028.2;;;-2.5;56.5
57799;BME280;43626;53.866;30.298;2022-11-20T12:44:19;1028.1;;;-2.3;56.3
57799;BME280;43626;53.866;30.298;2022-11-20T12:49:44;1028.1;;;-2.3;56.1
57799;BME280;43626;53.866;30.298;2022-11-20T12:55:01;1028;;;-2.3;55.9
57799;BME280;43626;53.866;30.298;2022-11-20T12:59:59;1027.9;;;-2.3;56.1
57799;BME280;43626;53.866;30.298;2022-11-20T13:04:33;1027.9;;;-2.3;56.2
57799;BME280;43626;53.866;30.298;2022-11-20T13:09:19;1028;;;-2.3;56.3
57799;BME280;43626;53.866;30.298;2022-11-20T13:14:32;1028;;;-2.3;56.4
57799;BME280;43626;53.866;30.298;2022-11-20T13:19:40;1028;;;-2.3;56.6
57799;BME280;43626;53.866;30.298;2022-11-20T13:24:29;1027.9;;;-2.2;56.3
57799;BME280;43626;53.866;30.298;2022-11-20T13:29:58;1027.9;;;-2.3;56.2
57799;BME280;43626;53.866;30.298;2022-11-20T13:34:22;1027.8;;;-2.5;56.4
57799;BME280;43626;53.866;30.298;2022-11-20T13:39:31;1027.8;;;-2.5;56.7
57799;BME280;43626;53.866;30.298;2022-11-20T13:44:10;1027.8;;;-2.5;56.7
57799;BME280;43626;53.866;30.298;2022-11-20T13:49:40;1027.9;;;-2.6;56.7
57799;BME280;43626;53.866;30.298;2022-11-20T13:54:59;1028;;;-2.6;57
57799;BME280;43626;53.866;30.298;2022-11-20T13:59:22;1028;;;-2.6;57
57799;BME280;43626;53.866;30.298;2022-11-20T14:04:53;1027.9;;;-2.6;57
57799;BME280;43626;53.866;30.298;2022-11-20T14:09:26;1028;;;-2.8;57.3
57799;BME280;43626;53.866;30.298;2022-11-20T14:14:47;1028;;;-2.8;57.7
57799;BME280;43626;53.866;30.298;2022-11-20T14:19:27;1027.8;;;-2.8;57.8
57799;BME280;43626;53.866;30.298;2022-11-20T14:24:09;1027.7;;;-2.8;57.9
57799;BME280;43626;53.866;30.298;2022-11-20T14:29:27;1027.7;;;-2.9;57.6
57799;BME280;43626;53.866;30.298;2022-11-20T14:34:19;1027.5;;;-3;57.8
57799;BME280;43626;53.866;30.298;2022-11-20T14:39:29;1027.3;;;-3;58
57799;BME280;43626;53.866;30.298;2022-11-20T14:44:55;1027.3;;;-3;58
57799;BME280;43626;53.866;30.298;2022-11-20T14:49:18;1027.4;;;-3;57.9
57799;BME280;43626;53.866;30.298;2022-11-20T14:54:44;1027.4;;;-3.1;58
57799;BME280;43626;53.866;30.298;2022-11-20T14:59:40;1027.5;;;-3.1;58.2
57799;BME280;43626;53.866;30.298;2022-11-20T15:04:44;1027.4;;;-3;58.2
57799;BME280;43626;53.866;30.298;2022-11-20T15:10:00;1027.4;;;-3;58.3
57799;BME280;43626;53.866;30.298;2022-11-20T15:14:16;1027.2;;;-3.1;58.3
57799;BME280;43626;53.866;30.298;2022-11-20T15:19:21;1027.2;;;-3.2;58.6
57799;BME280;43626;53.866;30.298;2022-11-20T15:24:35;1027.1;;;-3.2;58.6
57799;BME280;43626;53.866;30.298;2022-11-20T15:29:42;1027.1;;;-3.2;58.6
57799;BME280;43626;53.866;30.298;2022-11-20T15:34:27;1027.2;;;-3.4;58.7
57799;BME280;43626;53.866;30.298;2022-11-20T15:39:26;1027.1;;;-3.5;59.1
57799;BME280;43626;53.866;30.298;2022-11-20T15:44:28;1027.1;;;-3.4;59.2
57799;BME280;43626;53.866;30.298;2022-11-20T15:49:09;1027;;;-3.4;59.1
57799;BME280;43626;53.866;30.298;2022-11-20T15:54:28;1027;;;-3.5;59.3
57799;BME280;43626;53.866;30.298;2022-11-20T15:59:52;1027;;;-3.5;59.4
57799;BME280;43626;53.866;30.298;2022-11-20T16:04:08;1027;;;-3.5;59.5
57799;BME280;43626;53.866;30.298;2022-11-20T16:09:38;1027;;;-3.6;59.5
57799;BME280;43626;53.866;30.298;2022-11-20T16:14:38;1027.1;;;-3.7;59.8
57799;BME280;43626;53.866;30.298;2022-11-20T16:19:40;1027.2;;;-3.8;59.6
57799;BME280;43626;53.866;30.298;2022-11-20T16:24:52;1027.2;;;-3.9;60.1
57799;BME280;43626;53.866;30.298;2022-11-20T16:29:16;1027.2;;;-3.8;60
57799;BME280;43626;53.866;30.298;2022-11-20T16:34:52;1027.2;;;-3.9;59.9
57799;BME280;43626;53.866;30.298;2022-11-20T16:39:06;1027.2;;;-4;60
57799;BME280;43626;53.866;30.298;2022-11-20T16:44:40;1027.1;;;-3.9;60
57799;BME280;43626;53.866;30.298;2022-11-20T16:49:26;1027;;;-4;59.9
57799;BME280;43626;53.866;30.298;2022-11-20T16:54:07;1026.9;;;-4;60
57799;BME280;43626;53.866;30.298;2022-11-20T16:59:06;1026.8;;;-4.1;60.2
57799;BME280;43626;53.866;30.298;2022-11-20T17:04:34;1026.8;;;-4.1;60.4
57799;BME280;43626;53.866;30.298;2022-11-20T17:09:25;1026.7;;;-4.1;60.5
57799;BME280;43626;53.866;30.298;2022-11-20T17:14:52;1026.6;;;-4.2;60.4
57799;BME280;43626;53.866;30.298;2022-11-20T17:19:26;1026.4;;;-4.3;61
57799;BME280;43626;53.866;30.298;2022-11-20T17:24:36;1026.4;;;-4.2;60.9
57799;BME280;43626;53.866;30.298;2022-11-20T17:29:38;1026.3;;;-4.2;60.8
57799;BME280;43626;53.866;30.298;2022-11-20T17:34:38;1026.4;;;-4.2;60.8
57799;BME280;43626;53.866;30.298;2022-11-20T17:39:52;1026.4;;;-4.1;60.8
57799;BME280;43626;53.866;30.298;2022-11-20T17:44:08;1026.4;;;-4;60.7
57799;BME280;43626;53.866;30.298;2022-11-20T17:49:52;1026.4;;;-3.9;60.4
57799;BME280;43626;53.866;30.298;2022-11-20T17:54:52;1026.4;;;-3.8;60.3
57799;BME280;43626;53.866;30.298;2022-11-20T17:59:40;1026.4;;;-3.8;60.3
57799;BME280;43626;53.866;30.298;2022-11-20T18:04:26;1026.4;;;-3.7;59.8
57799;BME280;43626;53.866;30.298;2022-11-20T18:09:18;1026.3;;;-3.9;60.1
57799;BME280;43626;53.866;30.298;2022-11-20T18:14:26;1026.2;;;-4;60.5
57799;BME280;43626;53.866;30.298;2022-11-20T18:19:43;1026.2;;;-3.9;60.4
57799;BME280;43626;53.866;30.298;2022-11-20T18:24:07;1026.1;;;-4.1;60.6
57799;BME280;43626;53.866;30.298;2022-11-20T18:29:52;1026;;;-4.1;60.7
57799;BME280;43626;53.866;30.298;2022-11-20T18:34:25;1025.9;;;-4.2;60.8
57799;BME280;43626;53.866;30.298;2022-11-20T18:39:41;1026;;;-4.3;61
57799;BME280;43626;53.866;30.298;2022-11-20T18:44:27;1026;;;-4.3;61.5
57799;BME280;43626;53.866;30.298;2022-11-20T18:49:41;1026;;;-4.2;61.6
57799;BME280;43626;53.866;30.298;2022-11-20T18:54:39;1026;;;-4.2;61.6
57799;BME280;43626;53.866;30.298;2022-11-20T18:59:17;1026;;;-4.1;61.8
57799;BME280;43626;53.866;30.298;2022-11-20T19:04:53;1026;;;-4.1;61.3
57799;BME280;43626;53.866;30.298;2022-11-20T19:09:52;1025.9;;;-4.1;61.5
57799;BME280;43626;53.866;30.298;2022-11-20T19:14:40;1025.9;;;-4.1;61.3
57799;BME280;43626;53.866;30.298;2022-11-20T19:19:38;1025.9;;;-4.1;61.3
57799;BME280;43626;53.866;30.298;2022-11-20T19:24:17;1025.9;;;-4.2;61.4
57799;BME280;43626;53.866;30.298;2022-11-20T19:29:28;1026;;;-4.1;61.3
57799;BME280;43626;53.866;30.298;2022-11-20T19:34:52;1026.1;;;-4;61.4
57799;BME280;43626;53.866;30.298;2022-11-20T19:39:16;1025.9;;;-4;61.3
57799;BME280;43626;53.866;30.298;2022-11-20T19:44:52;1025.9;;;-4;61.5
57799;BME280;43626;53.866;30.298;2022-11-20T19:49:16;1025.9;;;-4;61.4
57799;BME280;43626;53.866;30.298;2022-11-20T19:54:52;1025.8;;;-4;61.4
57799;BME280;43626;53.866;30.298;2022-11-20T19:59:29;1025.7;;;-4.1;61.3
57799;BME280;43626;53.866;30.298;2022-11-20T20:04:38;1025.6;;;-4.2;61.7
57799;BME280;43626;53.866;30.298;2022-11-20T20:09:36;1025.6;;;-4.3;62
57799;BME280;43626;53.866;30.298;2022-11-20T20:14:07;1025.7;;;-4.5;62.4
57799;BME280;43626;53.866;30.298;2022-11-20T20:19:52;1025.8;;;-4.4;62.5
57799;BME280;43626;53.866;30.298;2022-11-20T20:24:54;1025.8;;;-4.3;62.3
57799;BME280;43626;53.866;30.298;2022-11-20T20:29:40;1025.7;;;-4.4;62.4
57799;BME280;43626;53.866;30.298;2022-11-20T20:34:27;1025.6;;;-4.3;62.5
57799;BME280;43626;53.866;30.298;2022-11-20T20:39:08;1025.5;;;-4.3;62.6
57799;BME280;43626;53.866;30.298;2022-11-20T20:44:26;1025.5;;;-4.2;62.6
57799;BME280;43626;53.866;30.298;2022-11-20T20:49:50;1025.3;;;-4.1;62.2
57799;BME280;43626;53.866;30.298;2022-11-20T20:54:28;1025.3;;;-4.2;62.1
57799;BME280;43626;53.866;30.298;2022-11-20T20:59:54;1025.2;;;-4.2;62.3
57799;BME280;43626;53.866;30.298;2022-11-20T21:04:16;1025.1;;;-4.3;62.4
57799;BME280;43626;53.866;30.298;2022-11-20T21:09:44;1025;;;-4.3;62.7
57799;BME280;43626;53.866;30.298;2022-11-20T21:14:55;1025.1;;;-4.3;62.4
57799;BME280;43626;53.866;30.298;2022-11-20T21:19:39;1025;;;-4.4;62.5
57799;BME280;43626;53.866;30.298;2022-11-20T21:24:29;1025.1;;;-4.3;62.5
57799;BME280;43626;53.866;30.298;2022-11-20T21:29:07;1025;;;-4.3;62.4
57799;BME280;43626;53.866;30.298;2022-11-20T21:34:55;1024.7;;;-4.3;62.4
57799;BME280;43626;53.866;30.298;2022-11-20T21:39:55;1024.6;;;-4.3;62.4
57799;BME280;43626;53.866;30.298;2022-11-20T21:44:41;1024.8;;;-4.3;62.4
57799;BME280;43626;53.866;30.298;2022-11-20T21:49:27;1025;;;-4.3;62.5
57799;BME280;43626;53.866;30.298;2022-11-20T21:54:31;1025.1;;;-4.4;62.7
57799;BME280;43626;53.866;30.298;2022-11-20T21:59:25;1025.1;;;-4.3;62.8
57799;BME280;43626;53.866;30.298;2022-11-20T22:04:53;1025.1;;;-4.2;62.5
57799;BME280;43626;53.866;30.298;2022-11-20T22:09:26;1025;;;-4;62.3
57799;BME280;43626;53.866;30.298;2022-11-20T22:14:39;1025;;;-3.8;61.9
57799;BME280;43626;53.866;30.298;2022-11-20T22:19:07;1025;;;-3.8;61.8
57799;BME280;43626;53.866;30.298;2022-11-20T22:24:13;1024.9;;;-3.7;61.8
57799;BME280;43626;53.866;30.298;2022-11-20T22:29:23;1024.6;;;-3.6;61.5
57799;BME280;43626;53.866;30.298;2022-11-20T22:34:37;1024.4;;;-3.5;61.4
57799;BME280;43626;53.866;30.298;2022-11-20T22:39:39;1024.3;;;-3.7;61.4
57799;BME280;43626;53.866;30.298;2022-11-20T22:44:07;1024.2;;;-3.9;61.5
57799;BME280;43626;53.866;30.298;2022-11-20T22:49:07;1024.2;;;-3.8;61.9
57799;BME280;43626;53.866;30.298;2022-11-20T22:54:53;1024.2;;;-3.7;61.5
57799;BME280;43626;53.866;30.298;2022-11-20T22:59:51;1024.1;;;-3.8;61.5
57799;BME280;43626;53.866;30.298;2022-11-20T23:04:37;1024.1;;;-3.9;62
57799;BME280;43626;53.866;30.298;2022-11-20T23:09:07;1024.2;;;-3.9;61.9
57799;BME280;43626;53.866;30.298;2022-11-20T23:14:09;1024.1;;;-3.9;62.1
57799;BME280;43626;53.866;30.298;2022-11-20T23:19:51;1024;;;-4;62.2
57799;BME280;43626;53.866;30.298;2022-11-20T23:24:25;1024;;;-4.1;62.4
57799;BME280;43626;53.866;30.298;2022-11-20T23:29:23;1023.9;;;-4.1;62.5
57799;BME280;43626;53.866;30.298;2022-11-20T23:34:27;1023.9;;;-4.2;62.9
57799;BME280;43626;53.866;30.298;2022-11-20T23:39:13;1023.8;;;-4.2;63.2
57799;BME280;43626;53.866;30.298;2022-11-20T23:44:23;1023.7;;;-4.1;63.1
57799;BME280;43626;53.866;30.298;2022-11-20T23:49:37;1023.6;;;-4.2;63.4
57799;BME280;43626;53.866;30.298;2022-11-20T23:54:37;1023.5;;;-4;63.4
57799;BME280;43626;53.866;30.298;2022-11-20T23:59:37;1023.4;;;-4;63.2
